Time;durP1;ratioP1;P1;durP2;ratioP2;P2;SDS_P1;SDS_P2;PMS_P1;PMS_P2;Temp;Humidity;BMP_temperature;BMP_pressure;BME280_temperature;BME280_humidity;BME280_pressure;Samples;Min_cycle;Max_cycle;Signal;HPM_P1;HPM_P2
2023/07/25 00:02:02;;;;;;;16.37;10.88;;;;;;;;;;4351406;32;319401;-81
2023/07/25 00:04:29;;;;;;;14.10;10.10;;;;;;;;;;4338602;32;418686;-81
2023/07/25 00:06:56;;;;;;;16.45;9.75;;;;;;;;;;4352320;32;319184;-81
2023/07/25 00:09:22;;;;;;;18.23;10.93;;;;;;;;;;4342563;32;318599;-81
2023/07/25 00:11:49;;;;;;;19.60;11.25;;;;;;;;;;4355097;32;318659;-81
2023/07/25 00:14:17;;;;;;;18.27;11.00;;;;;;;;;;4345817;32;319493;-81
2023/07/25 00:16:44;;;;;;;17.98;11.07;;;;;;;;;;4355380;32;319228;-81
2023/07/25 00:19:10;;;;;;;17.83;10.68;;;;;;;;;;4344277;32;319153;-81
2023/07/25 00:21:37;;;;;;;23.35;9.65;;;;;;;;;;4355336;32;319317;-81
2023/07/25 00:24:05;;;;;;;19.98;10.32;;;;;;;;;;4345677;32;318727;-82
2023/07/25 00:26:31;;;;;;;15.02;10.55;;;;;;;;;;4353663;32;318615;-81
2023/07/25 00:28:58;;;;;;;17.70;10.60;;;;;;;;;;4355396;32;319260;-81
2023/07/25 00:31:26;;;;;;;17.83;11.77;;;;;;;;;;4345500;32;319306;-81
2023/07/25 00:33:53;;;;;;;20.33;12.02;;;;;;;;;;4354983;32;318953;-81
2023/07/25 00:36:20;;;;;;;18.62;11.48;;;;;;;;;;4331484;32;319508;-81
2023/07/25 00:38:46;;;;;;;21.10;10.55;;;;;;;;;;4337677;32;319324;-81
2023/07/25 00:41:13;;;;;;;18.17;10.43;;;;;;;;;;4328466;32;319450;-81
2023/07/25 00:43:40;;;;;;;17.40;10.65;;;;;;;;;;4340208;32;318754;-81
2023/07/25 00:46:06;;;;;;;20.00;10.30;;;;;;;;;;4329158;32;319147;-81
2023/07/25 00:48:35;;;;;;;19.77;10.43;;;;;;;;;;4340256;32;319416;-81
2023/07/25 00:51:01;;;;;;;18.27;9.93;;;;;;;;;;4337474;32;319369;-81
2023/07/25 00:53:28;;;;;;;15.35;9.55;;;;;;;;;;4330235;32;318336;-81
2023/07/25 00:55:55;;;;;;;21.73;10.02;;;;;;;;;;4352279;32;318192;-81
2023/07/25 00:58:22;;;;;;;16.02;8.65;;;;;;;;;;4345172;32;319580;-81
2023/07/25 01:00:50;;;;;;;18.55;9.45;;;;;;;;;;4354920;32;318733;-80
2023/07/25 01:03:17;;;;;;;19.08;9.73;;;;;;;;;;4342615;32;318448;-80
2023/07/25 01:05:47;;;;;;;16.67;9.63;;;;;;;;;;4354563;32;317713;-81
2023/07/25 01:08:13;;;;;;;16.20;9.63;;;;;;;;;;4343932;32;318100;-81
2023/07/25 01:10:40;;;;;;;16.33;9.02;;;;;;;;;;4354135;32;318241;-81
2023/07/25 01:13:07;;;;;;;14.50;8.27;;;;;;;;;;4343634;32;318362;-81
2023/07/25 01:15:35;;;;;;;20.10;9.73;;;;;;;;;;4353559;32;318433;-81
2023/07/25 01:18:01;;;;;;;20.05;8.60;;;;;;;;;;4352661;32;335054;-81
2023/07/25 01:20:29;;;;;;;19.45;9.00;;;;;;;;;;4344622;32;318211;-81
2023/07/25 01:22:57;;;;;;;17.95;8.70;;;;;;;;;;4353358;32;318309;-81
2023/07/25 01:25:26;;;;;;;17.55;9.35;;;;;;;;;;4344360;32;318094;-81
2023/07/25 01:27:52;;;;;;;12.80;8.18;;;;;;;;;;4353391;32;318385;-81
2023/07/25 01:30:19;;;;;;;19.05;9.40;;;;;;;;;;4344877;32;318191;-81
2023/07/25 01:32:46;;;;;;;18.50;9.55;;;;;;;;;;4353978;32;318137;-81
2023/07/25 01:35:13;;;;;;;17.35;9.38;;;;;;;;;;4344343;32;318982;-81
2023/07/25 01:37:39;;;;;;;15.43;8.82;;;;;;;;;;4353031;32;318139;-81
2023/07/25 01:40:07;;;;;;;17.25;8.70;;;;;;;;;;4353328;32;318727;-81
2023/07/25 01:42:36;;;;;;;20.65;9.05;;;;;;;;;;4369350;32;318367;-81
2023/07/25 01:45:03;;;;;;;20.67;9.10;;;;;;;;;;4369414;32;318292;-81
2023/07/25 01:47:29;;;;;;;14.77;9.15;;;;;;;;;;4358213;32;318111;-81
2023/07/25 01:49:56;;;;;;;13.10;9.40;;;;;;;;;;4369114;32;318524;-81
2023/07/25 01:52:23;;;;;;;14.32;9.30;;;;;;;;;;4358798;32;317588;-81
2023/07/25 01:54:52;;;;;;;16.15;9.27;;;;;;;;;;4359106;32;318389;-81
2023/07/25 01:57:19;;;;;;;19.35;9.23;;;;;;;;;;4344314;32;318191;-81
2023/07/25 01:59:47;;;;;;;21.23;9.25;;;;;;;;;;4353932;32;318734;-81
2023/07/25 02:02:14;;;;;;;23.12;9.82;;;;;;;;;;4343996;32;318565;-81
2023/07/25 02:04:41;;;;;;;16.85;9.15;;;;;;;;;;4352644;32;318115;-81
2023/07/25 02:07:07;;;;;;;13.70;9.23;;;;;;;;;;4342456;32;374972;-80
2023/07/25 02:09:34;;;;;;;17.70;9.18;;;;;;;;;;4353566;32;318225;-81
2023/07/25 02:12:02;;;;;;;21.08;9.60;;;;;;;;;;4352518;32;317566;-81
2023/07/25 02:14:28;;;;;;;14.25;9.82;;;;;;;;;;4342216;32;334895;-81
2023/07/25 02:16:56;;;;;;;16.45;8.05;;;;;;;;;;4353716;32;318601;-81
2023/07/25 02:19:23;;;;;;;15.15;8.20;;;;;;;;;;4343642;32;318391;-81
2023/07/25 02:21:50;;;;;;;20.48;9.35;;;;;;;;;;4353586;32;317531;-81
2023/07/25 02:24:16;;;;;;;18.23;9.77;;;;;;;;;;4341534;32;356662;-81
2023/07/25 02:26:43;;;;;;;18.67;9.80;;;;;;;;;;4353349;32;318159;-80
2023/07/25 02:29:10;;;;;;;16.08;9.57;;;;;;;;;;4344172;32;318245;-81
2023/07/25 02:31:37;;;;;;;15.52;10.25;;;;;;;;;;4351885;32;317573;-81
2023/07/25 02:34:05;;;;;;;19.50;10.23;;;;;;;;;;4353029;32;319712;-81
2023/07/25 02:36:31;;;;;;;23.08;9.55;;;;;;;;;;4330475;32;419558;-81
2023/07/25 02:38:58;;;;;;;16.17;9.98;;;;;;;;;;4336255;32;317544;-81
2023/07/25 02:41:25;;;;;;;19.77;9.75;;;;;;;;;;4327441;32;318143;-81
2023/07/25 02:43:52;;;;;;;21.27;11.75;;;;;;;;;;4337556;32;317723;-81
2023/07/25 02:46:18;;;;;;;18.12;10.60;;;;;;;;;;4328865;32;318888;-81
2023/07/25 02:48:45;;;;;;;24.20;11.48;;;;;;;;;;4338438;32;319132;-81
2023/07/25 02:51:13;;;;;;;22.75;11.23;;;;;;;;;;4327414;32;318838;-80
2023/07/25 02:53:40;;;;;;;21.10;10.30;;;;;;;;;;4339189;32;318783;-81
2023/07/25 02:56:07;;;;;;;18.80;11.45;;;;;;;;;;4342807;32;319328;-81
2023/07/25 02:58:34;;;;;;;19.27;11.52;;;;;;;;;;4352085;32;319471;-80
2023/07/25 03:01:00;;;;;;;26.40;11.00;;;;;;;;;;4353268;32;319579;-81
2023/07/25 03:03:27;;;;;;;19.55;10.55;;;;;;;;;;4343465;32;319263;-81
2023/07/25 03:05:54;;;;;;;22.02;12.27;;;;;;;;;;4351728;32;319220;-81
2023/07/25 03:08:22;;;;;;;21.02;11.00;;;;;;;;;;4341340;32;353288;-81
2023/07/25 03:10:49;;;;;;;22.33;10.60;;;;;;;;;;4351582;32;318977;-81
2023/07/25 03:13:16;;;;;;;19.37;12.18;;;;;;;;;;4342253;32;350996;-81
2023/07/25 03:15:43;;;;;;;22.08;11.05;;;;;;;;;;4350413;32;327976;-81
2023/07/25 03:18:09;;;;;;;20.52;11.00;;;;;;;;;;4343105;32;319297;-81
2023/07/25 03:20:36;;;;;;;19.20;11.95;;;;;;;;;;4353104;32;319112;-81
2023/07/25 03:23:03;;;;;;;17.67;10.35;;;;;;;;;;4351956;32;319057;-81
2023/07/25 03:25:31;;;;;;;21.05;11.55;;;;;;;;;;4339891;32;418800;-81
2023/07/25 03:27:57;;;;;;;23.70;11.45;;;;;;;;;;4352713;32;324771;-80
2023/07/25 03:30:24;;;;;;;24.67;11.18;;;;;;;;;;4344476;32;319051;-79
2023/07/25 03:32:52;;;;;;;25.42;11.77;;;;;;;;;;4354536;32;319423;-80
2023/07/25 03:35:19;;;;;;;19.02;10.68;;;;;;;;;;4332835;32;327747;-80
2023/07/25 03:37:45;;;;;;;18.83;10.68;;;;;;;;;;4345319;32;324664;-79
2023/07/25 03:40:12;;;;;;;20.48;10.57;;;;;;;;;;4364139;32;319614;-80
2023/07/25 03:42:40;;;;;;;25.60;10.48;;;;;;;;;;4363046;32;318659;-80
2023/07/25 03:45:08;;;;;;;16.25;9.73;;;;;;;;;;4342341;32;418630;-81
2023/07/25 03:47:35;;;;;;;20.52;10.80;;;;;;;;;;4354569;32;318488;-81
2023/07/25 03:50:02;;;;;;;26.90;10.75;;;;;;;;;;4345878;32;319415;-81
2023/07/25 03:52:28;;;;;;;29.90;12.10;;;;;;;;;;4355385;32;319016;-80
2023/07/25 03:54:55;;;;;;;19.73;11.68;;;;;;;;;;4343541;32;319594;-80
2023/07/25 03:57:22;;;;;;;21.52;11.48;;;;;;;;;;4355389;32;327467;-80
2023/07/25 03:59:50;;;;;;;18.58;10.77;;;;;;;;;;4345556;32;319695;-81
2023/07/25 04:02:17;;;;;;;17.98;11.50;;;;;;;;;;4355362;32;332824;-81
2023/07/25 04:04:43;;;;;;;16.67;11.05;;;;;;;;;;4345496;32;319392;-81
2023/07/25 04:07:10;;;;;;;24.45;11.02;;;;;;;;;;4354486;32;318921;-81
2023/07/25 04:09:37;;;;;;;16.70;10.80;;;;;;;;;;4354278;32;349560;-80
2023/07/25 04:12:04;;;;;;;17.67;10.45;;;;;;;;;;4344894;32;332645;-81
2023/07/25 04:14:31;;;;;;;16.70;9.48;;;;;;;;;;4354644;32;319419;-80
2023/07/25 04:16:59;;;;;;;18.37;10.23;;;;;;;;;;4344276;32;318338;-81
2023/07/25 04:19:26;;;;;;;14.98;10.95;;;;;;;;;;4353916;32;318792;-80
2023/07/25 04:21:52;;;;;;;21.33;10.05;;;;;;;;;;4345067;32;318494;-81
2023/07/25 04:24:19;;;;;;;21.50;11.30;;;;;;;;;;4355021;32;319161;-81
2023/07/25 04:26:46;;;;;;;19.15;10.50;;;;;;;;;;4344191;32;319377;-81
2023/07/25 04:29:13;;;;;;;18.62;10.77;;;;;;;;;;4355204;32;319264;-83
2023/07/25 04:31:40;;;;;;;16.30;11.00;;;;;;;;;;4355124;32;319520;-89
2023/07/25 04:34:09;;;;;;;19.05;11.57;;;;;;;;;;4339971;32;418283;-90
2023/07/25 04:36:36;;;;;;;19.83;11.30;;;;;;;;;;4354833;32;319154;-88
2023/07/25 04:39:02;;;;;;;15.23;10.77;;;;;;;;;;4347597;32;319393;-87
2023/07/25 04:41:29;;;;;;;23.17;10.57;;;;;;;;;;4369112;32;319736;-88
2023/07/25 04:43:56;;;;;;;24.35;10.70;;;;;;;;;;4345668;32;319720;-88
2023/07/25 04:46:23;;;;;;;24.25;11.80;;;;;;;;;;4354949;32;319134;-88
2023/07/25 04:48:49;;;;;;;25.52;11.55;;;;;;;;;;4346471;32;319729;-86
2023/07/25 04:51:17;;;;;;;21.30;12.40;;;;;;;;;;4368898;32;319818;-85
2023/07/25 04:53:44;;;;;;;21.83;12.90;;;;;;;;;;4356938;32;319385;-86
2023/07/25 04:56:11;;;;;;;20.25;11.30;;;;;;;;;;4353705;32;319899;-85
2023/07/25 04:58:40;;;;;;;24.58;12.40;;;;;;;;;;4354686;32;319284;-85
2023/07/25 05:01:07;;;;;;;23.33;12.63;;;;;;;;;;4340952;32;419701;-86
2023/07/25 05:03:34;;;;;;;24.12;12.63;;;;;;;;;;4353220;32;318879;-85
2023/07/25 05:06:01;;;;;;;23.55;13.30;;;;;;;;;;4341642;32;320106;-84
2023/07/25 05:08:29;;;;;;;27.73;14.18;;;;;;;;;;4339542;32;319221;-84
2023/07/25 05:10:56;;;;;;;19.73;11.57;;;;;;;;;;4329458;32;331080;-84
2023/07/25 05:13:22;;;;;;;29.85;12.63;;;;;;;;;;4343835;32;319292;-84
2023/07/25 05:15:49;;;;;;;20.88;11.73;;;;;;;;;;4344612;32;319855;-84
2023/07/25 05:18:16;;;;;;;29.73;12.25;;;;;;;;;;4353243;32;320029;-83
2023/07/25 05:20:43;;;;;;;31.35;12.15;;;;;;;;;;4341988;32;396953;-85
2023/07/25 05:23:10;;;;;;;27.90;11.73;;;;;;;;;;4354243;32;319685;-83
2023/07/25 05:25:38;;;;;;;29.17;12.75;;;;;;;;;;4354062;32;319593;-83
2023/07/25 05:28:05;;;;;;;19.92;12.60;;;;;;;;;;4344332;32;319823;-85
2023/07/25 05:30:32;;;;;;;23.48;12.07;;;;;;;;;;4353663;32;318918;-85
2023/07/25 05:32:59;;;;;;;33.80;12.30;;;;;;;;;;4343793;32;319487;-84
2023/07/25 05:35:26;;;;;;;22.05;12.60;;;;;;;;;;4354359;32;320068;-85
2023/07/25 05:37:52;;;;;;;23.70;11.27;;;;;;;;;;4344999;32;319343;-85
2023/07/25 05:40:19;;;;;;;23.00;12.75;;;;;;;;;;4340649;32;319884;-88
2023/07/25 05:42:47;;;;;;;27.55;13.95;;;;;;;;;;4326542;32;359235;-89
2023/07/25 05:45:14;;;;;;;42.83;15.00;;;;;;;;;;4335316;32;319918;-86
2023/07/25 05:47:41;;;;;;;21.33;10.85;;;;;;;;;;4336059;32;319592;-86
2023/07/25 05:50:09;;;;;;;18.70;12.02;;;;;;;;;;4329688;32;418520;-89
2023/07/25 05:52:36;;;;;;;25.48;11.32;;;;;;;;;;4337100;32;319479;-81
2023/07/25 05:55:03;;;;;;;28.33;12.52;;;;;;;;;;4316633;32;319831;-85
2023/07/25 05:57:30;;;;;;;26.67;11.90;;;;;;;;;;4322702;32;320233;-89
2023/07/25 05:59:58;;;;;;;14.02;9.95;;;;;;;;;;4324918;32;319035;-89
2023/07/25 06:02:24;;;;;;;23.48;11.90;;;;;;;;;;4320979;32;317701;-89
2023/07/25 06:04:51;;;;;;;25.53;10.90;;;;;;;;;;4310368;32;340865;-89
2023/07/25 06:07:18;;;;;;;24.12;11.50;;;;;;;;;;4321190;32;320201;-88
2023/07/25 06:09:45;;;;;;;21.42;11.45;;;;;;;;;;4312041;32;319307;-88
2023/07/25 06:12:13;;;;;;;21.60;12.48;;;;;;;;;;4323672;32;319259;-80
2023/07/25 06:14:40;;;;;;;17.33;11.77;;;;;;;;;;4321343;32;319589;-81
2023/07/25 06:17:08;;;;;;;24.55;12.60;;;;;;;;;;4313248;32;319694;-81
2023/07/25 06:19:35;;;;;;;23.58;11.60;;;;;;;;;;4323060;32;318769;-80
2023/07/25 06:22:02;;;;;;;24.23;12.07;;;;;;;;;;4313496;32;320016;-80
2023/07/25 06:24:28;;;;;;;22.30;12.00;;;;;;;;;;4321581;33;319431;-80
2023/07/25 06:26:55;;;;;;;19.45;12.77;;;;;;;;;;4313019;32;320449;-83
2023/07/25 06:29:22;;;;;;;24.08;12.00;;;;;;;;;;4324301;32;319818;-81
2023/07/25 06:31:49;;;;;;;20.77;12.48;;;;;;;;;;4314398;32;319223;-81
2023/07/25 06:34:17;;;;;;;20.15;12.85;;;;;;;;;;4322770;32;318962;-83
2023/07/25 06:36:43;;;;;;;25.67;12.55;;;;;;;;;;4328470;32;319971;-82
2023/07/25 06:39:10;;;;;;;25.92;12.85;;;;;;;;;;4337426;32;319493;-82
2023/07/25 06:41:37;;;;;;;26.17;13.00;;;;;;;;;;4337941;32;319897;-81
2023/07/25 06:44:04;;;;;;;22.73;12.63;;;;;;;;;;4337036;32;319705;-82
2023/07/25 06:46:30;;;;;;;30.40;12.48;;;;;;;;;;4353168;32;319712;-82
2023/07/25 06:48:56;;;;;;;24.15;13.77;;;;;;;;;;4343769;32;319554;-82
2023/07/25 06:51:24;;;;;;;27.35;11.65;;;;;;;;;;4353001;32;326829;-82
2023/07/25 06:53:51;;;;;;;22.98;12.80;;;;;;;;;;4341943;32;322299;-82
2023/07/25 06:56:18;;;;;;;22.13;12.02;;;;;;;;;;4353354;32;319717;-81
2023/07/25 06:58:45;;;;;;;23.48;11.90;;;;;;;;;;4343755;32;319480;-81
2023/07/25 07:01:12;;;;;;;34.33;14.20;;;;;;;;;;4353278;32;319453;-82
2023/07/25 07:03:39;;;;;;;16.77;11.93;;;;;;;;;;4353128;32;329945;-81
2023/07/25 07:06:06;;;;;;;22.77;12.55;;;;;;;;;;4343157;32;319561;-82
2023/07/25 07:08:34;;;;;;;25.75;11.48;;;;;;;;;;4352070;32;319750;-81
2023/07/25 07:11:01;;;;;;;20.35;12.23;;;;;;;;;;4343566;32;319016;-81
2023/07/25 07:13:27;;;;;;;22.70;13.05;;;;;;;;;;4352153;32;319421;-81
2023/07/25 07:15:54;;;;;;;23.77;12.95;;;;;;;;;;4343453;32;319558;-82
2023/07/25 07:18:21;;;;;;;19.10;12.68;;;;;;;;;;4353253;32;319527;-82
2023/07/25 07:20:48;;;;;;;21.90;10.93;;;;;;;;;;4343437;32;319443;-81
2023/07/25 07:23:15;;;;;;;22.92;12.48;;;;;;;;;;4351693;32;319392;-81
2023/07/25 07:25:44;;;;;;;24.17;11.57;;;;;;;;;;4352081;32;356162;-81
2023/07/25 07:28:11;;;;;;;19.27;12.80;;;;;;;;;;4340514;32;419974;-81
2023/07/25 07:30:38;;;;;;;26.58;12.35;;;;;;;;;;4352893;32;319271;-81
2023/07/25 07:33:05;;;;;;;19.17;11.48;;;;;;;;;;4343396;32;319293;-81
2023/07/25 07:35:31;;;;;;;23.08;11.75;;;;;;;;;;4352036;32;319523;-81
2023/07/25 07:37:58;;;;;;;25.45;12.05;;;;;;;;;;4341270;32;348170;-81
2023/07/25 07:40:25;;;;;;;23.75;11.45;;;;;;;;;;4352632;32;327906;-81
2023/07/25 07:42:54;;;;;;;29.20;12.10;;;;;;;;;;4341679;32;323194;-81
2023/07/25 07:45:21;;;;;;;19.60;11.52;;;;;;;;;;4341966;32;319542;-81
2023/07/25 07:47:48;;;;;;;24.80;11.43;;;;;;;;;;4328510;32;319198;-82
2023/07/25 07:50:15;;;;;;;19.52;11.88;;;;;;;;;;4338302;32;319026;-81
2023/07/25 07:52:42;;;;;;;19.77;11.15;;;;;;;;;;4338004;32;319378;-81
2023/07/25 07:55:10;;;;;;;22.10;11.65;;;;;;;;;;4333023;32;420090;-81
2023/07/25 07:57:41;;;;;;;25.27;12.60;;;;;;;;;;4352959;32;318577;-81
2023/07/25 08:00:11;;;;;;;22.02;11.80;;;;;;;;;;4339385;32;420295;-80
2023/07/25 08:02:38;;;;;;;26.67;11.90;;;;;;;;;;4353174;32;318991;-81
2023/07/25 08:05:05;;;;;;;24.58;11.68;;;;;;;;;;4342008;32;319247;-81
2023/07/25 08:07:32;;;;;;;22.80;10.95;;;;;;;;;;4352726;32;319299;-81
2023/07/25 08:09:59;;;;;;;24.30;11.70;;;;;;;;;;4343160;32;318559;-82
2023/07/25 08:12:26;;;;;;;28.10;12.77;;;;;;;;;;4352108;32;319336;-80
2023/07/25 08:14:52;;;;;;;19.48;11.23;;;;;;;;;;4344127;32;319065;-80
2023/07/25 08:17:20;;;;;;;17.87;11.00;;;;;;;;;;4354337;32;319328;-81
2023/07/25 08:19:47;;;;;;;17.17;10.27;;;;;;;;;;4341798;32;318901;-80
2023/07/25 08:22:14;;;;;;;19.60;11.48;;;;;;;;;;4359214;32;318951;-80
2023/07/25 08:24:41;;;;;;;24.27;11.30;;;;;;;;;;4358151;32;318830;-81
2023/07/25 08:27:09;;;;;;;18.20;11.43;;;;;;;;;;4340609;32;418492;-82
2023/07/25 08:29:42;;;;;;;21.77;10.82;;;;;;;;;;4351554;32;319178;-82
2023/07/25 08:32:10;;;;;;;18.48;10.88;;;;;;;;;;4341619;32;419793;-82
2023/07/25 08:34:38;;;;;;;20.73;11.60;;;;;;;;;;4354370;32;319476;-82
2023/07/25 08:37:06;;;;;;;19.15;11.50;;;;;;;;;;4343940;32;326186;-82
2023/07/25 08:39:33;;;;;;;29.12;11.73;;;;;;;;;;4353785;32;319287;-81
2023/07/25 08:42:00;;;;;;;27.40;11.27;;;;;;;;;;4343724;32;319146;-82
2023/07/25 08:44:28;;;;;;;17.70;11.18;;;;;;;;;;4354009;32;319530;-81
2023/07/25 08:46:57;;;;;;;17.33;10.15;;;;;;;;;;4344024;32;319081;-82
2023/07/25 08:49:25;;;;;;;22.23;12.20;;;;;;;;;;4354081;32;319558;-82
2023/07/25 08:51:55;;;;;;;20.70;11.30;;;;;;;;;;4345186;32;319161;-82
2023/07/25 08:54:29;;;;;;;18.45;11.85;;;;;;;;;;4353198;32;319685;-81
2023/07/25 08:56:56;;;;;;;39.03;12.88;;;;;;;;;;4344018;32;319220;-81
2023/07/25 08:59:23;;;;;;;20.20;12.00;;;;;;;;;;4355054;32;319836;-82
2023/07/25 09:01:51;;;;;;;21.35;11.12;;;;;;;;;;4345039;32;319277;-82
2023/07/25 09:04:19;;;;;;;22.90;11.55;;;;;;;;;;4353825;32;319416;-82
2023/07/25 09:06:46;;;;;;;23.87;11.50;;;;;;;;;;4344618;32;338392;-82
2023/07/25 09:09:14;;;;;;;16.30;10.77;;;;;;;;;;4354612;32;319725;-82
2023/07/25 09:11:41;;;;;;;19.12;10.50;;;;;;;;;;4354557;32;319787;-81
2023/07/25 09:14:08;;;;;;;20.23;10.88;;;;;;;;;;4342169;32;420158;-82
2023/07/25 09:16:35;;;;;;;19.00;9.30;;;;;;;;;;4354321;32;319449;-81
2023/07/25 09:19:02;;;;;;;16.30;9.45;;;;;;;;;;4343946;32;318482;-82
2023/07/25 09:21:28;;;;;;;27.58;10.63;;;;;;;;;;4353498;32;320428;-81
2023/07/25 09:23:56;;;;;;;25.40;11.18;;;;;;;;;;4344117;32;319376;-81
2023/07/25 09:26:26;;;;;;;21.67;10.27;;;;;;;;;;4354126;32;318949;-81
2023/07/25 09:28:54;;;;;;;24.98;10.80;;;;;;;;;;4343769;32;319146;-82
2023/07/25 09:31:23;;;;;;;24.55;10.40;;;;;;;;;;4354319;32;319274;-81
2023/07/25 09:33:50;;;;;;;17.62;9.40;;;;;;;;;;4342560;32;319168;-82
2023/07/25 09:36:18;;;;;;;19.73;9.27;;;;;;;;;;4354588;32;318436;-82
2023/07/25 09:38:49;;;;;;;33.67;10.40;;;;;;;;;;4343263;32;318350;-82
2023/07/25 09:41:16;;;;;;;17.58;10.32;;;;;;;;;;4354118;32;319396;-82
2023/07/25 09:43:44;;;;;;;14.80;9.23;;;;;;;;;;4347360;32;319353;-82
2023/07/25 09:46:12;;;;;;;19.20;10.07;;;;;;;;;;4340591;32;317731;-82
2023/07/25 09:48:44;;;;;;;21.23;9.75;;;;;;;;;;4340891;32;325874;-82
2023/07/25 09:51:12;;;;;;;16.92;9.95;;;;;;;;;;4337714;32;419037;-82
2023/07/25 09:53:42;;;;;;;17.05;10.00;;;;;;;;;;4337990;32;318184;-82
2023/07/25 09:56:09;;;;;;;16.27;9.90;;;;;;;;;;4315831;32;418756;-82
2023/07/25 09:58:36;;;;;;;21.98;9.63;;;;;;;;;;4324382;32;318379;-82
2023/07/25 10:01:05;;;;;;;16.58;9.82;;;;;;;;;;4313339;32;318099;-82
2023/07/25 10:03:32;;;;;;;19.62;10.38;;;;;;;;;;4323833;32;338198;-82
2023/07/25 10:05:58;;;;;;;25.58;9.93;;;;;;;;;;4313586;32;319224;-82
2023/07/25 10:08:26;;;;;;;15.98;7.90;;;;;;;;;;4323989;32;318337;-82
2023/07/25 10:10:54;;;;;;;20.77;9.95;;;;;;;;;;4313418;32;318203;-82
2023/07/25 10:13:21;;;;;;;21.30;9.60;;;;;;;;;;4324265;32;318526;-82
2023/07/25 10:15:49;;;;;;;19.33;10.27;;;;;;;;;;4313187;32;318527;-82
2023/07/25 10:18:23;;;;;;;20.20;9.07;;;;;;;;;;4323160;32;319320;-82
2023/07/25 10:20:50;;;;;;;27.17;9.68;;;;;;;;;;4330198;32;318289;-82
2023/07/25 10:23:17;;;;;;;15.63;8.48;;;;;;;;;;4353433;32;318109;-82
2023/07/25 10:25:44;;;;;;;25.40;10.07;;;;;;;;;;4344188;32;317558;-82
2023/07/25 10:28:12;;;;;;;18.00;9.20;;;;;;;;;;4353867;32;318751;-82
2023/07/25 10:30:43;;;;;;;20.88;9.68;;;;;;;;;;4353765;32;318287;-82
2023/07/25 10:33:11;;;;;;;18.40;9.10;;;;;;;;;;4341173;32;419292;-82
2023/07/25 10:35:53;;;;;;;18.30;8.52;;;;;;;;;;4353845;32;317491;-82
2023/07/25 10:38:31;;;;;;;21.10;9.02;;;;;;;;;;4340955;32;419077;-82
2023/07/25 10:40:59;;;;;;;21.90;9.52;;;;;;;;;;4342595;32;318545;-82
2023/07/25 10:43:30;;;;;;;22.87;9.30;;;;;;;;;;4352142;32;318644;-82
2023/07/25 10:46:00;;;;;;;18.92;9.05;;;;;;;;;;4342375;32;317652;-82
2023/07/25 10:48:35;;;;;;;13.93;7.20;;;;;;;;;;4352458;32;318650;-82
2023/07/25 10:51:06;;;;;;;16.00;7.65;;;;;;;;;;4342821;32;318082;-82
2023/07/25 10:53:34;;;;;;;21.37;8.07;;;;;;;;;;4352822;32;317760;-82
2023/07/25 10:56:15;;;;;;;18.55;7.78;;;;;;;;;;4342743;32;318259;-82
2023/07/25 10:59:04;;;;;;;16.55;6.78;;;;;;;;;;4352694;32;351410;-82
2023/07/25 11:01:43;;;;;;;17.55;7.60;;;;;;;;;;4329485;32;419891;-82
2023/07/25 11:04:24;;;;;;;20.30;6.72;;;;;;;;;;4340664;32;417749;-82
2023/07/25 11:06:53;;;;;;;22.73;7.20;;;;;;;;;;4342087;32;318531;-82
2023/07/25 11:09:21;;;;;;;19.52;7.15;;;;;;;;;;4352510;32;318500;-82
2023/07/25 11:11:49;;;;;;;18.58;7.10;;;;;;;;;;4341066;32;399259;-82
2023/07/25 11:14:17;;;;;;;23.33;6.75;;;;;;;;;;4352147;32;318330;-82
2023/07/25 11:16:45;;;;;;;23.85;7.18;;;;;;;;;;4342978;32;318443;-82
2023/07/25 11:19:14;;;;;;;19.52;7.20;;;;;;;;;;4351744;32;317931;-82
2023/07/25 11:21:41;;;;;;;22.58;6.72;;;;;;;;;;4352786;32;318335;-82
2023/07/25 11:24:11;;;;;;;21.12;7.12;;;;;;;;;;4340699;32;417713;-81
2023/07/25 11:26:38;;;;;;;20.42;7.15;;;;;;;;;;4351794;32;318248;-82
2023/07/25 11:29:06;;;;;;;21.37;7.47;;;;;;;;;;4343229;32;318519;-82
2023/07/25 11:31:33;;;;;;;19.27;8.25;;;;;;;;;;4353004;32;318595;-82
2023/07/25 11:34:09;;;;;;;33.63;7.97;;;;;;;;;;4343441;32;317700;-82
2023/07/25 11:36:38;;;;;;;12.77;5.65;;;;;;;;;;4352898;32;318165;-82
2023/07/25 11:39:05;;;;;;;17.08;7.07;;;;;;;;;;4343561;32;318702;-82
2023/07/25 11:41:33;;;;;;;26.60;6.68;;;;;;;;;;4352376;32;342596;-82
2023/07/25 11:44:00;;;;;;;17.60;6.37;;;;;;;;;;4341322;32;317612;-82
2023/07/25 11:46:27;;;;;;;18.33;7.00;;;;;;;;;;4337004;32;318075;-82
2023/07/25 11:48:55;;;;;;;24.48;6.97;;;;;;;;;;4328440;32;318158;-82
2023/07/25 11:51:22;;;;;;;29.63;6.20;;;;;;;;;;4336404;32;332738;-82
2023/07/25 11:53:49;;;;;;;21.92;7.55;;;;;;;;;;4325457;32;318379;-82
2023/07/25 11:56:16;;;;;;;20.62;7.12;;;;;;;;;;4322426;33;318523;-82
2023/07/25 11:58:49;;;;;;;12.80;6.50;;;;;;;;;;4322433;33;346904;-82
2023/07/25 12:01:18;;;;;;;15.50;7.07;;;;;;;;;;4322161;32;417438;-82
2023/07/25 12:03:49;;;;;;;25.98;9.02;;;;;;;;;;4312605;33;318143;-82
2023/07/25 12:06:16;;;;;;;24.87;6.57;;;;;;;;;;4324694;32;317597;-82
2023/07/25 12:08:44;;;;;;;15.95;6.97;;;;;;;;;;4316514;32;318878;-83
2023/07/25 12:11:13;;;;;;;31.05;6.93;;;;;;;;;;4325956;32;318432;-81
2023/07/25 12:13:45;;;;;;;19.45;7.25;;;;;;;;;;4342920;32;318101;-82
2023/07/25 12:16:26;;;;;;;22.20;7.80;;;;;;;;;;4342456;32;419227;-81
2023/07/25 12:18:55;;;;;;;20.95;6.68;;;;;;;;;;4344847;32;318489;-82
2023/07/25 12:21:24;;;;;;;21.20;6.90;;;;;;;;;;4355377;32;318458;-82
2023/07/25 12:23:53;;;;;;;20.55;6.18;;;;;;;;;;4346006;32;318656;-82
2023/07/25 12:26:21;;;;;;;13.93;6.62;;;;;;;;;;4355240;32;317563;-83
2023/07/25 12:28:49;;;;;;;19.73;6.78;;;;;;;;;;4344563;32;317622;-81
2023/07/25 12:31:16;;;;;;;17.80;5.57;;;;;;;;;;4354363;32;318261;-81
2023/07/25 12:33:44;;;;;;;11.93;4.70;;;;;;;;;;4355446;32;318359;-82
2023/07/25 12:36:12;;;;;;;25.60;5.47;;;;;;;;;;4342155;32;417500;-82
2023/07/25 12:38:38;;;;;;;18.42;4.55;;;;;;;;;;4355391;32;318390;-81
2023/07/25 12:41:05;;;;;;;15.95;5.30;;;;;;;;;;4345472;32;318302;-81
2023/07/25 12:43:32;;;;;;;14.23;4.40;;;;;;;;;;4354954;32;318135;-81
2023/07/25 12:45:59;;;;;;;17.33;5.40;;;;;;;;;;4344041;32;318588;-81
2023/07/25 12:48:26;;;;;;;15.30;4.57;;;;;;;;;;4353875;32;318291;-81
2023/07/25 12:50:54;;;;;;;19.67;4.75;;;;;;;;;;4344160;32;346544;-82
2023/07/25 12:53:21;;;;;;;14.40;4.87;;;;;;;;;;4354152;32;317563;-81
2023/07/25 12:55:48;;;;;;;11.95;4.45;;;;;;;;;;4344132;32;345922;-82
2023/07/25 12:58:15;;;;;;;13.43;4.87;;;;;;;;;;4353952;32;345259;-81
2023/07/25 13:00:42;;;;;;;20.90;6.43;;;;;;;;;;4353696;32;318353;-81
2023/07/25 13:03:09;;;;;;;15.60;3.87;;;;;;;;;;4341491;32;418855;-81
2023/07/25 13:05:36;;;;;;;18.08;5.75;;;;;;;;;;4355829;32;317558;-80
2023/07/25 13:08:04;;;;;;;17.05;5.15;;;;;;;;;;4348739;32;317537;-81
2023/07/25 13:10:31;;;;;;;18.27;4.87;;;;;;;;;;4350995;32;318235;-80
2023/07/25 13:12:57;;;;;;;14.80;5.20;;;;;;;;;;4341315;32;326637;-81
2023/07/25 13:15:24;;;;;;;14.40;5.32;;;;;;;;;;4350303;32;318212;-81
2023/07/25 13:17:51;;;;;;;22.33;5.97;;;;;;;;;;4338089;32;318036;-81
2023/07/25 13:20:18;;;;;;;17.77;4.68;;;;;;;;;;4347198;32;318250;-81
2023/07/25 13:22:45;;;;;;;18.42;5.82;;;;;;;;;;4337580;32;318204;-82
2023/07/25 13:25:13;;;;;;;13.80;5.03;;;;;;;;;;4351965;32;318232;-82
2023/07/25 13:27:39;;;;;;;15.63;4.93;;;;;;;;;;4350405;32;324394;-82
2023/07/25 13:30:07;;;;;;;20.48;4.55;;;;;;;;;;4338386;32;317623;-82
2023/07/25 13:32:34;;;;;;;12.50;5.15;;;;;;;;;;4348401;32;317480;-82
2023/07/25 13:35:01;;;;;;;15.75;4.97;;;;;;;;;;4337475;32;318292;-82
2023/07/25 13:37:27;;;;;;;24.92;5.18;;;;;;;;;;4349635;32;317965;-82
2023/07/25 13:39:54;;;;;;;22.60;4.90;;;;;;;;;;4342117;32;318188;-82
2023/07/25 13:42:23;;;;;;;17.25;5.57;;;;;;;;;;4348020;32;318087;-82
2023/07/25 13:44:50;;;;;;;18.55;4.45;;;;;;;;;;4330327;32;318295;-82
2023/07/25 13:47:17;;;;;;;15.70;4.55;;;;;;;;;;4336222;32;317817;-85
2023/07/25 13:49:44;;;;;;;16.62;5.05;;;;;;;;;;4331045;32;395467;-82
2023/07/25 13:52:10;;;;;;;15.98;5.22;;;;;;;;;;4343324;32;318625;-81
2023/07/25 13:54:37;;;;;;;13.98;4.55;;;;;;;;;;4348348;32;318504;-82
2023/07/25 13:57:05;;;;;;;14.68;4.75;;;;;;;;;;4343287;32;318243;-82
2023/07/25 13:59:33;;;;;;;19.67;5.05;;;;;;;;;;4341916;32;317497;-85
2023/07/25 14:02:00;;;;;;;17.13;4.73;;;;;;;;;;4341457;32;318185;-85
2023/07/25 14:04:29;;;;;;;14.45;5.05;;;;;;;;;;4345992;32;318302;-85
2023/07/25 14:06:56;;;;;;;10.70;5.22;;;;;;;;;;4341578;32;318480;-85
2023/07/25 14:09:22;;;;;;;15.18;5.00;;;;;;;;;;4337838;32;317703;-85
2023/07/25 14:11:49;;;;;;;21.48;4.93;;;;;;;;;;4325361;32;318739;-85
2023/07/25 14:14:16;;;;;;;15.15;5.07;;;;;;;;;;4338174;32;318248;-85